DAL817 KBOS-KRDU
Flight info
| Callsign | DAL817 |
|---|---|
| Flight time | 1h 54m |
| Altitude | 38000 |
| Route | SSOXS7 SSOXS Q167 ZJAAY TAQLE3 |
| Aircraft | A319/M-SDE3FGHIRWY/LB1 |
Departure
| Time | 2026-05-07 00:23 |
|---|---|
| Airport | Boston Logan International Airport (KBOS) |
Arrival
| Time | 2026-05-07 02:18 |
|---|---|
| Airport | Raleigh-Durham International Airport (KRDU) |
| Time | Latitude | Longitude | Altitude | Speed | Heading |
|---|---|---|---|---|---|
| 2026-05-06 23:31 | 42.36517 | -71.02308 | 35 ft | 0 kts | 107° |
| 2026-05-06 23:50 | 42.36519 | -71.02314 | 26 ft | 2 kts | 107° |
| 2026-05-06 23:50 | 42.36524 | -71.02339 | 30 ft | 3 kts | 107° |
| 2026-05-06 23:51 | 42.36531 | -71.02364 | 27 ft | 3 kts | 120° |
| 2026-05-06 23:51 | 42.36541 | -71.02382 | 31 ft | 2 kts | 162° |
| 2026-05-06 23:51 | 42.36543 | -71.02383 | 31 ft | 2 kts | 169° |
| 2026-05-06 23:51 | 42.36525 | -71.02379 | 31 ft | 3 kts | 171° |
| 2026-05-06 23:52 | 42.36505 | -71.02376 | 26 ft | 3 kts | 174° |
| 2026-05-06 23:52 | 42.36485 | -71.02374 | 28 ft | 3 kts | 176° |
| 2026-05-06 23:52 | 42.36465 | -71.02373 | 26 ft | 3 kts | 179° |
| 2026-05-06 23:52 | 42.36457 | -71.02373 | 26 ft | 0 kts | 179° |
| 2026-05-06 23:55 | 42.36439 | -71.02372 | 27 ft | 5 kts | 174° |
| 2026-05-06 23:55 | 42.36399 | -71.02352 | 26 ft | 7 kts | 152° |
| 2026-05-06 23:55 | 42.36351 | -71.02329 | 26 ft | 8 kts | 173° |
| 2026-05-06 23:55 | 42.36293 | -71.02337 | 27 ft | 9 kts | 188° |
| 2026-05-06 23:56 | 42.36228 | -71.02344 | 27 ft | 10 kts | 183° |
| 2026-05-06 23:56 | 42.36190 | -71.02347 | 28 ft | 0 kts | 183° |
| 2026-05-06 23:56 | 42.36189 | -71.02347 | 28 ft | 0 kts | 183° |
| 2026-05-06 23:58 | 42.36185 | -71.02347 | 26 ft | 2 kts | 183° |
| 2026-05-06 23:58 | 42.36097 | -71.02329 | 28 ft | 19 kts | 148° |
| 2026-05-06 23:58 | 42.36023 | -71.02234 | 29 ft | 14 kts | 121° |
| 2026-05-06 23:58 | 42.35970 | -71.02114 | 26 ft | 15 kts | 121° |
| 2026-05-06 23:59 | 42.35913 | -71.01988 | 27 ft | 16 kts | 121° |
| 2026-05-06 23:59 | 42.35857 | -71.01853 | 27 ft | 17 kts | 111° |
| 2026-05-06 23:59 | 42.35832 | -71.01695 | 30 ft | 17 kts | 99° |
| 2026-05-06 23:59 | 42.35821 | -71.01601 | 26 ft | 7 kts | 85° |
| 2026-05-07 00:00 | 42.35855 | -71.01565 | 26 ft | 7 kts | 18° |
| 2026-05-07 00:00 | 42.35915 | -71.01538 | 26 ft | 13 kts | 18° |
| 2026-05-07 00:00 | 42.36034 | -71.01481 | 25 ft | 20 kts | 20° |
| 2026-05-07 00:00 | 42.36165 | -71.01417 | 28 ft | 20 kts | 20° |
| 2026-05-07 00:01 | 42.36292 | -71.01355 | 30 ft | 19 kts | 20° |
| 2026-05-07 00:01 | 42.36421 | -71.01293 | 27 ft | 20 kts | 20° |
| 2026-05-07 00:01 | 42.36549 | -71.01231 | 28 ft | 19 kts | 19° |
| 2026-05-07 00:01 | 42.36668 | -71.01174 | 27 ft | 16 kts | 19° |
| 2026-05-07 00:02 | 42.36754 | -71.01139 | 27 ft | 4 kts | 0° |
| 2026-05-07 00:02 | 42.36757 | -71.01140 | 27 ft | 0 kts | 357° |
| 2026-05-07 00:03 | 42.36759 | -71.01140 | 27 ft | 2 kts | 356° |
| 2026-05-07 00:04 | 42.36780 | -71.01147 | 26 ft | 4 kts | 341° |
| 2026-05-07 00:04 | 42.36805 | -71.01170 | 26 ft | 5 kts | 320° |
| 2026-05-07 00:04 | 42.36848 | -71.01225 | 26 ft | 13 kts | 315° |
| 2026-05-07 00:04 | 42.36916 | -71.01316 | 26 ft | 14 kts | 315° |
| 2026-05-07 00:05 | 42.36989 | -71.01414 | 26 ft | 15 kts | 315° |
| 2026-05-07 00:05 | 42.37067 | -71.01520 | 27 ft | 16 kts | 315° |
| 2026-05-07 00:05 | 42.37149 | -71.01625 | 26 ft | 15 kts | 328° |
| 2026-05-07 00:05 | 42.37164 | -71.01631 | 28 ft | 4 kts | 349° |
| 2026-05-07 00:06 | 42.37216 | -71.01587 | 29 ft | 12 kts | 51° |
| 2026-05-07 00:06 | 42.37198 | -71.01487 | 26 ft | 12 kts | 131° |
| 2026-05-07 00:06 | 42.37137 | -71.01401 | 26 ft | 13 kts | 134° |
| 2026-05-07 00:06 | 42.37069 | -71.01308 | 26 ft | 14 kts | 136° |
| 2026-05-07 00:07 | 42.37051 | -71.01285 | 26 ft | 0 kts | 136° |
| 2026-05-07 00:11 | 42.37049 | -71.01282 | 26 ft | 2 kts | 136° |
| 2026-05-07 00:11 | 42.37026 | -71.01252 | 29 ft | 5 kts | 136° |
| 2026-05-07 00:11 | 42.37011 | -71.01232 | 26 ft | 0 kts | 136° |
| 2026-05-07 00:15 | 42.37000 | -71.01218 | 26 ft | 7 kts | 136° |
| 2026-05-07 00:15 | 42.36966 | -71.01139 | 26 ft | 11 kts | 73° |
| 2026-05-07 00:16 | 42.37031 | -71.01082 | 26 ft | 12 kts | 26° |
| 2026-05-07 00:16 | 42.37124 | -71.01021 | 27 ft | 17 kts | 26° |
| 2026-05-07 00:16 | 42.37245 | -71.00944 | 28 ft | 21 kts | 25° |
| 2026-05-07 00:16 | 42.37396 | -71.00864 | 27 ft | 24 kts | 17° |
| 2026-05-07 00:17 | 42.37551 | -71.00793 | 26 ft | 19 kts | 19° |
| 2026-05-07 00:17 | 42.37676 | -71.00733 | 28 ft | 19 kts | 19° |
| 2026-05-07 00:17 | 42.37793 | -71.00671 | 26 ft | 15 kts | 21° |
| 2026-05-07 00:17 | 42.37844 | -71.00613 | 26 ft | 8 kts | 83° |
| 2026-05-07 00:18 | 42.37837 | -71.00588 | 26 ft | 0 kts | 112° |
| 2026-05-07 00:22 | 42.37835 | -71.00579 | 26 ft | 4 kts | 112° |
| 2026-05-07 00:22 | 42.37793 | -71.00459 | 26 ft | 25 kts | 134° |
| 2026-05-07 00:23 | 42.37616 | -71.00562 | 26 ft | 36 kts | 200° |
| 2026-05-07 00:23 | 42.37199 | -71.00762 | 28 ft | 100 kts | 199° |
| 2026-05-07 00:23 | 42.36357 | -71.01164 | 175 ft | 142 kts | 200° |
| 2026-05-07 00:23 | 42.35493 | -71.01558 | 1087 ft | 127 kts | 203° |
| 2026-05-07 00:24 | 42.34616 | -71.01796 | 1766 ft | 136 kts | 184° |
| 2026-05-07 00:24 | 42.33661 | -71.01196 | 2185 ft | 177 kts | 145° |
| 2026-05-07 00:24 | 42.32808 | -70.99805 | 2536 ft | 205 kts | 137° |
| 2026-05-07 00:24 | 42.31881 | -70.98198 | 2892 ft | 230 kts | 133° |
| 2026-05-07 00:25 | 42.31266 | -70.96091 | 3417 ft | 255 kts | 101° |
| 2026-05-07 00:25 | 42.31403 | -70.93599 | 3979 ft | 275 kts | 79° |
| 2026-05-07 00:25 | 42.31788 | -70.91045 | 4728 ft | 280 kts | 79° |
| 2026-05-07 00:25 | 42.32171 | -70.88483 | 4946 ft | 276 kts | 78° |
| 2026-05-07 00:26 | 42.32583 | -70.85901 | 5002 ft | 291 kts | 79° |
| 2026-05-07 00:26 | 42.32962 | -70.83161 | 5001 ft | 301 kts | 86° |
| 2026-05-07 00:26 | 42.32929 | -70.80357 | 5008 ft | 298 kts | 100° |
| 2026-05-07 00:26 | 42.32451 | -70.77642 | 5010 ft | 295 kts | 114° |
| 2026-05-07 00:27 | 42.31603 | -70.75095 | 5593 ft | 297 kts | 121° |
| 2026-05-07 00:27 | 42.30764 | -70.72677 | 5954 ft | 273 kts | 120° |
| 2026-05-07 00:27 | 42.29780 | -70.70493 | 6109 ft | 281 kts | 135° |
| 2026-05-07 00:27 | 42.28372 | -70.68612 | 6822 ft | 287 kts | 149° |
| 2026-05-07 00:28 | 42.26678 | -70.67220 | 7764 ft | 283 kts | 163° |
| 2026-05-07 00:28 | 42.24840 | -70.66311 | 8762 ft | 282 kts | 169° |
| 2026-05-07 00:28 | 42.22964 | -70.65458 | 9737 ft | 286 kts | 170° |
| 2026-05-07 00:28 | 42.21049 | -70.64593 | 10435 ft | 299 kts | 170° |
| 2026-05-07 00:29 | 42.19008 | -70.63682 | 10933 ft | 316 kts | 169° |
| 2026-05-07 00:29 | 42.16899 | -70.62729 | 11743 ft | 321 kts | 170° |
| 2026-05-07 00:30 | 42.10539 | -70.62800 | 14284 ft | 303 kts | 204° |
| 2026-05-07 00:30 | 42.08530 | -70.63698 | 15067 ft | 305 kts | 204° |
| 2026-05-07 00:30 | 42.06507 | -70.64598 | 15832 ft | 308 kts | 204° |
| 2026-05-07 00:30 | 42.04468 | -70.65502 | 16589 ft | 310 kts | 204° |
| 2026-05-07 00:31 | 42.02407 | -70.66411 | 17348 ft | 313 kts | 204° |
| 2026-05-07 00:31 | 42.00327 | -70.67327 | 18097 ft | 316 kts | 204° |
| 2026-05-07 00:31 | 41.98230 | -70.68252 | 18736 ft | 319 kts | 205° |
| 2026-05-07 00:31 | 41.96102 | -70.69190 | 19288 ft | 324 kts | 205° |
| 2026-05-07 00:32 | 41.93944 | -70.70140 | 19867 ft | 329 kts | 205° |
| 2026-05-07 00:32 | 41.91754 | -70.71100 | 20469 ft | 333 kts | 205° |
| 2026-05-07 00:32 | 41.89563 | -70.72058 | 21050 ft | 338 kts | 206° |
| 2026-05-07 00:32 | 41.87314 | -70.73041 | 21636 ft | 342 kts | 206° |
| 2026-05-07 00:33 | 41.85039 | -70.74038 | 22222 ft | 346 kts | 206° |
| 2026-05-07 00:33 | 41.82820 | -70.75273 | 22786 ft | 343 kts | 216° |
| 2026-05-07 00:33 | 41.80733 | -70.76844 | 23372 ft | 345 kts | 217° |
| 2026-05-07 00:33 | 41.78628 | -70.78435 | 23844 ft | 349 kts | 218° |
| 2026-05-07 00:34 | 41.76504 | -70.80032 | 24389 ft | 351 kts | 218° |
| 2026-05-07 00:34 | 41.74369 | -70.81634 | 24913 ft | 353 kts | 218° |
| 2026-05-07 00:34 | 41.72222 | -70.83241 | 25436 ft | 354 kts | 218° |
| 2026-05-07 00:34 | 41.70060 | -70.84858 | 25952 ft | 356 kts | 218° |
| 2026-05-07 00:35 | 41.67895 | -70.86479 | 26462 ft | 357 kts | 218° |
| 2026-05-07 00:35 | 41.65725 | -70.88108 | 27000 ft | 359 kts | 219° |
| 2026-05-07 00:35 | 41.63542 | -70.89745 | 27511 ft | 360 kts | 219° |
| 2026-05-07 00:35 | 41.61380 | -70.91358 | 27992 ft | 361 kts | 219° |
| 2026-05-07 00:36 | 41.59180 | -70.92998 | 28467 ft | 363 kts | 219° |
| 2026-05-07 00:36 | 41.56979 | -70.94664 | 28929 ft | 362 kts | 221° |
| 2026-05-07 00:36 | 41.54991 | -70.96652 | 29377 ft | 354 kts | 230° |
| 2026-05-07 00:36 | 41.53334 | -70.99038 | 29845 ft | 348 kts | 239° |
| 2026-05-07 00:37 | 41.51969 | -71.01701 | 30236 ft | 347 kts | 242° |
| 2026-05-07 00:37 | 41.50629 | -71.04399 | 30612 ft | 349 kts | 242° |
| 2026-05-07 00:37 | 41.49277 | -71.07108 | 30972 ft | 352 kts | 242° |
| 2026-05-07 00:37 | 41.47916 | -71.09825 | 31327 ft | 354 kts | 242° |
| 2026-05-07 00:38 | 41.46537 | -71.12567 | 31667 ft | 356 kts | 242° |
| 2026-05-07 00:38 | 41.45151 | -71.15315 | 31989 ft | 358 kts | 242° |
| 2026-05-07 00:38 | 41.43754 | -71.18083 | 32269 ft | 361 kts | 242° |
| 2026-05-07 00:38 | 41.42367 | -71.20834 | 32616 ft | 362 kts | 243° |
| 2026-05-07 00:39 | 41.40968 | -71.23614 | 33082 ft | 361 kts | 243° |
| 2026-05-07 00:39 | 41.39573 | -71.26387 | 33555 ft | 359 kts | 243° |
| 2026-05-07 00:39 | 41.38183 | -71.29148 | 34000 ft | 358 kts | 243° |
| 2026-05-07 00:39 | 41.36796 | -71.31900 | 34407 ft | 357 kts | 243° |
| 2026-05-07 00:40 | 41.35416 | -71.34634 | 34789 ft | 355 kts | 243° |
| 2026-05-07 00:40 | 41.34034 | -71.37369 | 35173 ft | 354 kts | 244° |
| 2026-05-07 00:40 | 41.32662 | -71.40082 | 35540 ft | 353 kts | 244° |
| 2026-05-07 00:40 | 41.31291 | -71.42790 | 35898 ft | 352 kts | 244° |
| 2026-05-07 00:41 | 41.29926 | -71.45488 | 36248 ft | 351 kts | 244° |
| 2026-05-07 00:41 | 41.28565 | -71.48178 | 36585 ft | 350 kts | 244° |
| 2026-05-07 00:41 | 41.27202 | -71.50866 | 36926 ft | 350 kts | 244° |
| 2026-05-07 00:41 | 41.25841 | -71.53540 | 37250 ft | 349 kts | 244° |
| 2026-05-07 00:42 | 41.24483 | -71.56203 | 37604 ft | 348 kts | 244° |
| 2026-05-07 00:42 | 41.23146 | -71.58828 | 37840 ft | 347 kts | 244° |
| 2026-05-07 00:42 | 41.20459 | -71.64115 | 37879 ft | 345 kts | 244° |
| 2026-05-07 00:43 | 41.17774 | -71.69388 | 37879 ft | 344 kts | 244° |
| 2026-05-07 00:43 | 41.15087 | -71.74653 | 37879 ft | 344 kts | 244° |
| 2026-05-07 00:44 | 41.12406 | -71.79916 | 37879 ft | 344 kts | 245° |
| 2026-05-07 00:44 | 41.09733 | -71.85178 | 37879 ft | 344 kts | 245° |
| 2026-05-07 00:45 | 41.07058 | -71.90434 | 37878 ft | 344 kts | 245° |
| 2026-05-07 00:45 | 41.04384 | -71.95677 | 37878 ft | 343 kts | 245° |
| 2026-05-07 00:46 | 41.02499 | -72.00204 | 37879 ft | 335 kts | 252° |
| 2026-05-07 00:46 | 41.00541 | -72.05800 | 37879 ft | 335 kts | 252° |
| 2026-05-07 00:47 | 40.98569 | -72.11388 | 37871 ft | 335 kts | 252° |
| 2026-05-07 00:47 | 40.96591 | -72.16962 | 37881 ft | 334 kts | 252° |
| 2026-05-07 00:48 | 40.94611 | -72.22531 | 37897 ft | 334 kts | 252° |
| 2026-05-07 00:48 | 40.92648 | -72.28061 | 37904 ft | 334 kts | 252° |
| 2026-05-07 00:49 | 40.90024 | -72.33240 | 37897 ft | 352 kts | 236° |
| 2026-05-07 00:49 | 40.86530 | -72.37799 | 37895 ft | 353 kts | 236° |
| 2026-05-07 00:50 | 40.83020 | -72.42356 | 37844 ft | 353 kts | 236° |
| 2026-05-07 00:50 | 40.79470 | -72.46849 | 37896 ft | 359 kts | 232° |
| 2026-05-07 00:51 | 40.75612 | -72.51038 | 37895 ft | 359 kts | 232° |
| 2026-05-07 00:51 | 40.71745 | -72.55220 | 37893 ft | 359 kts | 232° |
| 2026-05-07 00:52 | 40.67915 | -72.59375 | 37896 ft | 358 kts | 233° |
| 2026-05-07 00:52 | 40.64177 | -72.63654 | 37887 ft | 354 kts | 234° |
| 2026-05-07 00:53 | 40.60493 | -72.67949 | 37896 ft | 354 kts | 234° |
| 2026-05-07 00:53 | 40.56797 | -72.72231 | 37892 ft | 354 kts | 234° |
| 2026-05-07 00:54 | 40.53083 | -72.76492 | 37895 ft | 354 kts | 234° |
| 2026-05-07 00:54 | 40.49360 | -72.80741 | 37897 ft | 354 kts | 234° |
| 2026-05-07 00:55 | 40.45643 | -72.84983 | 37901 ft | 354 kts | 234° |
| 2026-05-07 00:55 | 40.41943 | -72.89208 | 37891 ft | 354 kts | 234° |
| 2026-05-07 00:56 | 40.38221 | -72.93452 | 37904 ft | 355 kts | 234° |
| 2026-05-07 00:56 | 40.34502 | -72.97690 | 37889 ft | 353 kts | 234° |
| 2026-05-07 00:57 | 40.30785 | -73.01909 | 37896 ft | 353 kts | 234° |
| 2026-05-07 00:57 | 40.27070 | -73.06119 | 37894 ft | 354 kts | 234° |
| 2026-05-07 00:58 | 40.23342 | -73.10333 | 37893 ft | 354 kts | 234° |
| 2026-05-07 00:58 | 40.19611 | -73.14549 | 37893 ft | 354 kts | 234° |
| 2026-05-07 00:59 | 40.14014 | -73.20857 | 37899 ft | 354 kts | 234° |
| 2026-05-07 01:00 | 40.10308 | -73.25033 | 37889 ft | 354 kts | 234° |
| 2026-05-07 01:00 | 40.06575 | -73.29237 | 37903 ft | 354 kts | 234° |
| 2026-05-07 01:01 | 40.02844 | -73.33424 | 37913 ft | 353 kts | 234° |
| 2026-05-07 01:01 | 39.99110 | -73.37585 | 37901 ft | 353 kts | 234° |
| 2026-05-07 01:02 | 39.95379 | -73.41748 | 37904 ft | 352 kts | 234° |
| 2026-05-07 01:02 | 39.91650 | -73.45923 | 37899 ft | 353 kts | 234° |
| 2026-05-07 01:03 | 39.87925 | -73.50068 | 37909 ft | 354 kts | 234° |
| 2026-05-07 01:03 | 39.84175 | -73.54239 | 37903 ft | 354 kts | 234° |
| 2026-05-07 01:04 | 39.80435 | -73.58414 | 37908 ft | 354 kts | 234° |
| 2026-05-07 01:04 | 39.76690 | -73.62582 | 37906 ft | 354 kts | 234° |
| 2026-05-07 01:05 | 39.72934 | -73.66746 | 37903 ft | 355 kts | 234° |
| 2026-05-07 01:05 | 39.69174 | -73.70917 | 37909 ft | 355 kts | 234° |
| 2026-05-07 01:06 | 39.65412 | -73.75096 | 37912 ft | 356 kts | 234° |
| 2026-05-07 01:06 | 39.61646 | -73.79257 | 37909 ft | 356 kts | 234° |
| 2026-05-07 01:07 | 39.57897 | -73.83387 | 37904 ft | 356 kts | 234° |
| 2026-05-07 01:07 | 39.54128 | -73.87545 | 37906 ft | 356 kts | 234° |
| 2026-05-07 01:08 | 39.50359 | -73.91705 | 37912 ft | 356 kts | 234° |
| 2026-05-07 01:08 | 39.46589 | -73.95859 | 37907 ft | 356 kts | 234° |
| 2026-05-07 01:09 | 39.42807 | -74.00005 | 37915 ft | 356 kts | 234° |
| 2026-05-07 01:09 | 39.39042 | -74.04127 | 37907 ft | 354 kts | 234° |
| 2026-05-07 01:10 | 39.35277 | -74.08238 | 37903 ft | 356 kts | 234° |
| 2026-05-07 01:10 | 39.31484 | -74.12378 | 37907 ft | 357 kts | 234° |
| 2026-05-07 01:11 | 39.27700 | -74.16501 | 37854 ft | 357 kts | 234° |
| 2026-05-07 01:11 | 39.25801 | -74.18561 | 37295 ft | 357 kts | 233° |
| 2026-05-07 01:11 | 39.23902 | -74.20625 | 36583 ft | 358 kts | 233° |
| 2026-05-07 01:11 | 39.21995 | -74.22701 | 35874 ft | 359 kts | 232° |
| 2026-05-07 01:12 | 39.20088 | -74.24783 | 35162 ft | 360 kts | 232° |
| 2026-05-07 01:12 | 39.18171 | -74.26872 | 34453 ft | 362 kts | 231° |
| 2026-05-07 01:12 | 39.16237 | -74.28976 | 33601 ft | 365 kts | 230° |
| 2026-05-07 01:12 | 39.14285 | -74.31096 | 32664 ft | 370 kts | 230° |
| 2026-05-07 01:13 | 39.12308 | -74.33238 | 32117 ft | 371 kts | 230° |
| 2026-05-07 01:13 | 39.10325 | -74.35379 | 31933 ft | 373 kts | 230° |
| 2026-05-07 01:13 | 39.08336 | -74.37523 | 31900 ft | 372 kts | 230° |
| 2026-05-07 01:14 | 39.04393 | -74.41774 | 31911 ft | 372 kts | 230° |
| 2026-05-07 01:14 | 39.00438 | -74.46038 | 31907 ft | 367 kts | 230° |
| 2026-05-07 01:14 | 38.98517 | -74.48087 | 31886 ft | 350 kts | 230° |
| 2026-05-07 01:15 | 38.96687 | -74.50033 | 31910 ft | 335 kts | 230° |
| 2026-05-07 01:15 | 38.93169 | -74.53838 | 31914 ft | 327 kts | 232° |
| 2026-05-07 01:16 | 38.89825 | -74.57753 | 31916 ft | 324 kts | 233° |
| 2026-05-07 01:16 | 38.86526 | -74.61695 | 31915 ft | 324 kts | 233° |
| 2026-05-07 01:17 | 38.83197 | -74.65644 | 31914 ft | 335 kts | 233° |
| 2026-05-07 01:17 | 38.81447 | -74.67713 | 31917 ft | 349 kts | 232° |
| 2026-05-07 01:17 | 38.79626 | -74.69855 | 31915 ft | 361 kts | 232° |
| 2026-05-07 01:18 | 38.75827 | -74.74276 | 31914 ft | 374 kts | 231° |
| 2026-05-07 01:18 | 38.71848 | -74.78647 | 31906 ft | 379 kts | 229° |
| 2026-05-07 01:19 | 38.67743 | -74.82841 | 31907 ft | 380 kts | 228° |
| 2026-05-07 01:19 | 38.63616 | -74.87050 | 31906 ft | 379 kts | 228° |
| 2026-05-07 01:20 | 38.59510 | -74.91296 | 31879 ft | 379 kts | 228° |
| 2026-05-07 01:20 | 38.55421 | -74.95557 | 31881 ft | 379 kts | 228° |
| 2026-05-07 01:21 | 38.51366 | -74.99808 | 31882 ft | 379 kts | 229° |
| 2026-05-07 01:21 | 38.47401 | -75.04224 | 31896 ft | 377 kts | 230° |
| 2026-05-07 01:22 | 38.43314 | -75.08504 | 31926 ft | 382 kts | 226° |
| 2026-05-07 01:22 | 38.39025 | -75.12518 | 31886 ft | 382 kts | 225° |
| 2026-05-07 01:23 | 38.34711 | -75.16502 | 31892 ft | 383 kts | 225° |
| 2026-05-07 01:23 | 38.30422 | -75.20535 | 31895 ft | 383 kts | 225° |
| 2026-05-07 01:24 | 38.26148 | -75.24600 | 31896 ft | 384 kts | 225° |
| 2026-05-07 01:24 | 38.21890 | -75.28643 | 31897 ft | 385 kts | 225° |
| 2026-05-07 01:25 | 38.17582 | -75.32704 | 31872 ft | 385 kts | 225° |
| 2026-05-07 01:25 | 38.13269 | -75.36768 | 31884 ft | 387 kts | 225° |
| 2026-05-07 01:26 | 38.08938 | -75.40843 | 31886 ft | 388 kts | 225° |
| 2026-05-07 01:26 | 38.04668 | -75.44994 | 31908 ft | 382 kts | 230° |
| 2026-05-07 01:27 | 38.00782 | -75.49563 | 31922 ft | 381 kts | 231° |
| 2026-05-07 01:27 | 37.96897 | -75.54115 | 31875 ft | 381 kts | 230° |
| 2026-05-07 01:28 | 37.93004 | -75.58679 | 31905 ft | 382 kts | 230° |
| 2026-05-07 01:28 | 37.89122 | -75.63209 | 31903 ft | 383 kts | 230° |
| 2026-05-07 01:29 | 37.85201 | -75.67778 | 31909 ft | 383 kts | 230° |
| 2026-05-07 01:29 | 37.81261 | -75.72365 | 31329 ft | 386 kts | 230° |
| 2026-05-07 01:29 | 37.79285 | -75.74663 | 30754 ft | 385 kts | 229° |
| 2026-05-07 01:30 | 37.77325 | -75.76941 | 30160 ft | 381 kts | 227° |
| 2026-05-07 01:30 | 37.75384 | -75.79198 | 29551 ft | 378 kts | 227° |
| 2026-05-07 01:30 | 37.73451 | -75.81440 | 28903 ft | 376 kts | 228° |
| 2026-05-07 01:30 | 37.71523 | -75.83674 | 28270 ft | 376 kts | 228° |
| 2026-05-07 01:31 | 37.69592 | -75.85912 | 27655 ft | 378 kts | 228° |
| 2026-05-07 01:31 | 37.67662 | -75.88146 | 27047 ft | 374 kts | 228° |
| 2026-05-07 01:31 | 37.65754 | -75.90351 | 26448 ft | 370 kts | 229° |
| 2026-05-07 01:31 | 37.63864 | -75.92533 | 25873 ft | 366 kts | 229° |
| 2026-05-07 01:32 | 37.61994 | -75.94696 | 25295 ft | 364 kts | 229° |
| 2026-05-07 01:32 | 37.60209 | -75.96920 | 24740 ft | 356 kts | 235° |
| 2026-05-07 01:32 | 37.58658 | -75.99335 | 24203 ft | 352 kts | 237° |
| 2026-05-07 01:32 | 37.57127 | -76.01727 | 23980 ft | 350 kts | 237° |
| 2026-05-07 01:33 | 37.55593 | -76.04108 | 23916 ft | 350 kts | 237° |
| 2026-05-07 01:33 | 37.54057 | -76.06491 | 23932 ft | 350 kts | 237° |
| 2026-05-07 01:33 | 37.52515 | -76.08875 | 23928 ft | 350 kts | 237° |
| 2026-05-07 01:33 | 37.50997 | -76.11224 | 23929 ft | 350 kts | 237° |
| 2026-05-07 01:34 | 37.49457 | -76.13606 | 23931 ft | 350 kts | 237° |
| 2026-05-07 01:34 | 37.47917 | -76.15985 | 23938 ft | 350 kts | 237° |
| 2026-05-07 01:34 | 37.46386 | -76.18357 | 23934 ft | 349 kts | 237° |
| 2026-05-07 01:34 | 37.44855 | -76.20724 | 23935 ft | 349 kts | 237° |
| 2026-05-07 01:35 | 37.43820 | -76.22325 | 23925 ft | 349 kts | 237° |
| 2026-05-07 01:35 | 37.42312 | -76.24658 | 23925 ft | 349 kts | 237° |
| 2026-05-07 01:35 | 37.40262 | -76.27821 | 23925 ft | 348 kts | 237° |
| 2026-05-07 01:35 | 37.39249 | -76.29388 | 23925 ft | 348 kts | 237° |
| 2026-05-07 01:36 | 37.37713 | -76.31760 | 23921 ft | 351 kts | 237° |
| 2026-05-07 01:36 | 37.36163 | -76.34149 | 23928 ft | 353 kts | 237° |
| 2026-05-07 01:36 | 37.34608 | -76.36542 | 23917 ft | 353 kts | 237° |
| 2026-05-07 01:36 | 37.33051 | -76.38934 | 23918 ft | 353 kts | 237° |
| 2026-05-07 01:37 | 37.31492 | -76.41329 | 23918 ft | 354 kts | 237° |
| 2026-05-07 01:37 | 37.29932 | -76.43721 | 23924 ft | 354 kts | 237° |
| 2026-05-07 01:37 | 37.28373 | -76.46110 | 23924 ft | 354 kts | 237° |
| 2026-05-07 01:37 | 37.26814 | -76.48497 | 23924 ft | 354 kts | 237° |
| 2026-05-07 01:38 | 37.25258 | -76.50887 | 23955 ft | 353 kts | 237° |
| 2026-05-07 01:38 | 37.23722 | -76.53277 | 23942 ft | 350 kts | 237° |
| 2026-05-07 01:38 | 37.22203 | -76.55664 | 23933 ft | 349 kts | 237° |
| 2026-05-07 01:38 | 37.20687 | -76.58043 | 23934 ft | 349 kts | 237° |
| 2026-05-07 01:39 | 37.19186 | -76.60392 | 23935 ft | 349 kts | 237° |
| 2026-05-07 01:39 | 37.17663 | -76.62776 | 23929 ft | 352 kts | 236° |
| 2026-05-07 01:39 | 37.16124 | -76.65183 | 23933 ft | 354 kts | 236° |
| 2026-05-07 01:39 | 37.14579 | -76.67593 | 23934 ft | 355 kts | 236° |
| 2026-05-07 01:40 | 37.13029 | -76.70000 | 23931 ft | 355 kts | 236° |
| 2026-05-07 01:40 | 37.11476 | -76.72410 | 23933 ft | 355 kts | 236° |
| 2026-05-07 01:40 | 37.09923 | -76.74821 | 23934 ft | 355 kts | 236° |
| 2026-05-07 01:40 | 37.08369 | -76.77226 | 23933 ft | 355 kts | 236° |
| 2026-05-07 01:41 | 37.06811 | -76.79635 | 23935 ft | 355 kts | 236° |
| 2026-05-07 01:41 | 37.05259 | -76.82038 | 23933 ft | 355 kts | 236° |
| 2026-05-07 01:41 | 37.03723 | -76.84411 | 23930 ft | 343 kts | 236° |
| 2026-05-07 01:41 | 37.02253 | -76.86672 | 23936 ft | 326 kts | 236° |
| 2026-05-07 01:42 | 37.00851 | -76.88829 | 23944 ft | 315 kts | 237° |
| 2026-05-07 01:42 | 36.99479 | -76.90949 | 23943 ft | 312 kts | 237° |
| 2026-05-07 01:42 | 36.98136 | -76.93034 | 23926 ft | 313 kts | 236° |
| 2026-05-07 01:42 | 36.96761 | -76.95174 | 23944 ft | 317 kts | 236° |
| 2026-05-07 01:43 | 36.95375 | -76.97322 | 23943 ft | 318 kts | 236° |
| 2026-05-07 01:43 | 36.93984 | -76.99469 | 23944 ft | 318 kts | 236° |
| 2026-05-07 01:43 | 36.92588 | -77.01615 | 23943 ft | 318 kts | 236° |
| 2026-05-07 01:43 | 36.91184 | -77.03755 | 23944 ft | 318 kts | 236° |
| 2026-05-07 01:44 | 36.89771 | -77.05885 | 23943 ft | 318 kts | 235° |
| 2026-05-07 01:44 | 36.88356 | -77.08011 | 23941 ft | 319 kts | 235° |
| 2026-05-07 01:44 | 36.86935 | -77.10138 | 23942 ft | 318 kts | 235° |
| 2026-05-07 01:44 | 36.85515 | -77.12265 | 23938 ft | 318 kts | 235° |
| 2026-05-07 01:45 | 36.84098 | -77.14392 | 23938 ft | 318 kts | 235° |
| 2026-05-07 01:45 | 36.82684 | -77.16517 | 23940 ft | 318 kts | 235° |
| 2026-05-07 01:45 | 36.81266 | -77.18641 | 23940 ft | 319 kts | 235° |
| 2026-05-07 01:45 | 36.79847 | -77.20767 | 23906 ft | 319 kts | 235° |
| 2026-05-07 01:46 | 36.78420 | -77.22907 | 23429 ft | 320 kts | 235° |
| 2026-05-07 01:46 | 36.77002 | -77.25033 | 22900 ft | 318 kts | 236° |
| 2026-05-07 01:46 | 36.75594 | -77.27145 | 22376 ft | 316 kts | 236° |
| 2026-05-07 01:46 | 36.74208 | -77.29223 | 21879 ft | 315 kts | 236° |
| 2026-05-07 01:47 | 36.72806 | -77.31320 | 21375 ft | 314 kts | 236° |
| 2026-05-07 01:47 | 36.71408 | -77.33405 | 20883 ft | 313 kts | 236° |
| 2026-05-07 01:47 | 36.70009 | -77.35493 | 20393 ft | 313 kts | 236° |
| 2026-05-07 01:47 | 36.68619 | -77.37568 | 20033 ft | 308 kts | 236° |
| 2026-05-07 01:48 | 36.67260 | -77.39591 | 19954 ft | 301 kts | 236° |
| 2026-05-07 01:48 | 36.65918 | -77.41591 | 19971 ft | 300 kts | 236° |
| 2026-05-07 01:48 | 36.64581 | -77.43588 | 19973 ft | 300 kts | 236° |
| 2026-05-07 01:48 | 36.63246 | -77.45581 | 19972 ft | 300 kts | 236° |
| 2026-05-07 01:49 | 36.61926 | -77.47547 | 19971 ft | 300 kts | 236° |
| 2026-05-07 01:49 | 36.60589 | -77.49537 | 19931 ft | 300 kts | 236° |
| 2026-05-07 01:49 | 36.59248 | -77.51529 | 19688 ft | 299 kts | 236° |
| 2026-05-07 01:49 | 36.57914 | -77.53514 | 19450 ft | 298 kts | 236° |
| 2026-05-07 01:50 | 36.56586 | -77.55494 | 19186 ft | 299 kts | 236° |
| 2026-05-07 01:50 | 36.55252 | -77.57477 | 18941 ft | 299 kts | 236° |
| 2026-05-07 01:50 | 36.53920 | -77.59455 | 18725 ft | 298 kts | 236° |
| 2026-05-07 01:50 | 36.52593 | -77.61419 | 18498 ft | 295 kts | 236° |
| 2026-05-07 01:51 | 36.51276 | -77.63368 | 18273 ft | 294 kts | 236° |
| 2026-05-07 01:51 | 36.49959 | -77.65315 | 18034 ft | 292 kts | 236° |
| 2026-05-07 01:51 | 36.48651 | -77.67247 | 17942 ft | 292 kts | 236° |
| 2026-05-07 01:51 | 36.47342 | -77.69180 | 17956 ft | 292 kts | 236° |
| 2026-05-07 01:52 | 36.46031 | -77.71118 | 17958 ft | 293 kts | 236° |
| 2026-05-07 01:52 | 36.44734 | -77.73031 | 17957 ft | 293 kts | 236° |
| 2026-05-07 01:52 | 36.43408 | -77.74992 | 17957 ft | 293 kts | 236° |
| 2026-05-07 01:52 | 36.42098 | -77.76930 | 17958 ft | 293 kts | 236° |
| 2026-05-07 01:53 | 36.40785 | -77.78866 | 17962 ft | 293 kts | 236° |
| 2026-05-07 01:53 | 36.39471 | -77.80799 | 17959 ft | 293 kts | 235° |
| 2026-05-07 01:53 | 36.38157 | -77.82731 | 17953 ft | 293 kts | 236° |
| 2026-05-07 01:53 | 36.36845 | -77.84661 | 17942 ft | 293 kts | 236° |
| 2026-05-07 01:54 | 36.35530 | -77.86592 | 17950 ft | 293 kts | 236° |
| 2026-05-07 01:54 | 36.34216 | -77.88525 | 17954 ft | 293 kts | 236° |
| 2026-05-07 01:54 | 36.32901 | -77.90461 | 17946 ft | 293 kts | 236° |
| 2026-05-07 01:54 | 36.31589 | -77.92396 | 17950 ft | 293 kts | 236° |
| 2026-05-07 01:55 | 36.30289 | -77.94307 | 17925 ft | 293 kts | 236° |
| 2026-05-07 01:55 | 36.28973 | -77.96239 | 17751 ft | 294 kts | 236° |
| 2026-05-07 01:55 | 36.27646 | -77.98185 | 17292 ft | 293 kts | 236° |
| 2026-05-07 01:55 | 36.26342 | -78.00084 | 17049 ft | 286 kts | 236° |
| 2026-05-07 01:56 | 36.25061 | -78.01950 | 16688 ft | 283 kts | 236° |
| 2026-05-07 01:56 | 36.23788 | -78.03813 | 16322 ft | 282 kts | 235° |
| 2026-05-07 01:56 | 36.22618 | -78.05734 | 15941 ft | 275 kts | 246° |
| 2026-05-07 01:56 | 36.22099 | -78.07974 | 15584 ft | 270 kts | 266° |
| 2026-05-07 01:57 | 36.22344 | -78.10265 | 15216 ft | 272 kts | 287° |
| 2026-05-07 01:57 | 36.23327 | -78.12286 | 14847 ft | 281 kts | 308° |
| 2026-05-07 01:57 | 36.24970 | -78.13681 | 14474 ft | 297 kts | 331° |
| 2026-05-07 01:57 | 36.27060 | -78.14073 | 14121 ft | 316 kts | 358° |
| 2026-05-07 01:58 | 36.29156 | -78.13180 | 13975 ft | 326 kts | 28° |
| 2026-05-07 01:58 | 36.30695 | -78.11161 | 13987 ft | 323 kts | 58° |
| 2026-05-07 01:58 | 36.31670 | -78.08702 | 13984 ft | 312 kts | 63° |
| 2026-05-07 01:58 | 36.32564 | -78.06307 | 13992 ft | 300 kts | 63° |
| 2026-05-07 01:59 | 36.33418 | -78.03997 | 13987 ft | 290 kts | 63° |
| 2026-05-07 01:59 | 36.34241 | -78.01764 | 13991 ft | 286 kts | 63° |
| 2026-05-07 01:59 | 36.35071 | -77.99520 | 13991 ft | 286 kts | 63° |
| 2026-05-07 01:59 | 36.35901 | -77.97283 | 13898 ft | 284 kts | 63° |
| 2026-05-07 02:00 | 36.36507 | -77.94943 | 13446 ft | 291 kts | 84° |
| 2026-05-07 02:00 | 36.36329 | -77.92402 | 12875 ft | 307 kts | 113° |
| 2026-05-07 02:00 | 36.35212 | -77.90067 | 12623 ft | 319 kts | 140° |
| 2026-05-07 02:00 | 36.33409 | -77.88576 | 12364 ft | 307 kts | 167° |
| 2026-05-07 02:01 | 36.31368 | -77.88203 | 12116 ft | 291 kts | 192° |
| 2026-05-07 02:01 | 36.29490 | -77.88870 | 11976 ft | 274 kts | 216° |
| 2026-05-07 02:01 | 36.28073 | -77.90273 | 12027 ft | 252 kts | 234° |
| 2026-05-07 02:01 | 36.27204 | -77.92077 | 11903 ft | 238 kts | 250° |
| 2026-05-07 02:02 | 36.26604 | -77.93972 | 11492 ft | 240 kts | 250° |
| 2026-05-07 02:02 | 36.25971 | -77.95963 | 10787 ft | 255 kts | 249° |
| 2026-05-07 02:02 | 36.25308 | -77.98024 | 10314 ft | 259 kts | 249° |
| 2026-05-07 02:02 | 36.24643 | -78.00085 | 10021 ft | 255 kts | 249° |
| 2026-05-07 02:03 | 36.24001 | -78.02073 | 9990 ft | 241 kts | 249° |
| 2026-05-07 02:03 | 36.23400 | -78.03939 | 9994 ft | 226 kts | 249° |
| 2026-05-07 02:03 | 36.22823 | -78.05679 | 9996 ft | 211 kts | 248° |
| 2026-05-07 02:03 | 36.22244 | -78.07276 | 9997 ft | 196 kts | 247° |
| 2026-05-07 02:04 | 36.21694 | -78.08748 | 9995 ft | 179 kts | 247° |
| 2026-05-07 02:04 | 36.21191 | -78.10084 | 9990 ft | 163 kts | 247° |
| 2026-05-07 02:04 | 36.20729 | -78.11322 | 9749 ft | 160 kts | 247° |
| 2026-05-07 02:04 | 36.20249 | -78.12620 | 9254 ft | 170 kts | 246° |
| 2026-05-07 02:05 | 36.19709 | -78.13983 | 9428 ft | 183 kts | 245° |
| 2026-05-07 02:05 | 36.19098 | -78.15481 | 9729 ft | 217 kts | 247° |
| 2026-05-07 02:05 | 36.18474 | -78.17363 | 9743 ft | 250 kts | 250° |
| 2026-05-07 02:05 | 36.17849 | -78.19410 | 9493 ft | 256 kts | 250° |
| 2026-05-07 02:06 | 36.17211 | -78.21490 | 8914 ft | 260 kts | 250° |
| 2026-05-07 02:06 | 36.16556 | -78.23573 | 8457 ft | 259 kts | 250° |
| 2026-05-07 02:06 | 36.15892 | -78.25639 | 8041 ft | 258 kts | 250° |
| 2026-05-07 02:06 | 36.15222 | -78.27690 | 7620 ft | 256 kts | 250° |
| 2026-05-07 02:07 | 36.14757 | -78.29802 | 7201 ft | 254 kts | 259° |
| 2026-05-07 02:07 | 36.14008 | -78.34051 | 6460 ft | 248 kts | 258° |
| 2026-05-07 02:07 | 36.13644 | -78.36078 | 6331 ft | 235 kts | 258° |
| 2026-05-07 02:08 | 36.13303 | -78.37991 | 6232 ft | 221 kts | 258° |
| 2026-05-07 02:08 | 36.12982 | -78.39786 | 6145 ft | 207 kts | 258° |
| 2026-05-07 02:08 | 36.12678 | -78.41474 | 6064 ft | 195 kts | 258° |
| 2026-05-07 02:08 | 36.12390 | -78.43063 | 5975 ft | 186 kts | 258° |
| 2026-05-07 02:09 | 36.12112 | -78.44607 | 5786 ft | 182 kts | 258° |
| 2026-05-07 02:09 | 36.11837 | -78.46134 | 5614 ft | 181 kts | 257° |
| 2026-05-07 02:09 | 36.11564 | -78.47651 | 5449 ft | 180 kts | 257° |
| 2026-05-07 02:09 | 36.11291 | -78.49160 | 5288 ft | 179 kts | 257° |
| 2026-05-07 02:10 | 36.11021 | -78.50660 | 5132 ft | 177 kts | 257° |
| 2026-05-07 02:10 | 36.10751 | -78.52143 | 4981 ft | 176 kts | 257° |
| 2026-05-07 02:10 | 36.10480 | -78.53623 | 4834 ft | 176 kts | 257° |
| 2026-05-07 02:10 | 36.10216 | -78.55076 | 4694 ft | 175 kts | 257° |
| 2026-05-07 02:11 | 36.09781 | -78.56470 | 4533 ft | 177 kts | 232° |
| 2026-05-07 02:11 | 36.08688 | -78.57196 | 4396 ft | 189 kts | 198° |
| 2026-05-07 02:11 | 36.07408 | -78.57540 | 4233 ft | 188 kts | 202° |
| 2026-05-07 02:11 | 36.06147 | -78.57959 | 3967 ft | 187 kts | 201° |
| 2026-05-07 02:12 | 36.04891 | -78.58379 | 3671 ft | 186 kts | 200° |
| 2026-05-07 02:12 | 36.03717 | -78.58915 | 3545 ft | 174 kts | 214° |
| 2026-05-07 02:12 | 36.02753 | -78.59751 | 3429 ft | 166 kts | 223° |
| 2026-05-07 02:12 | 36.01904 | -78.60682 | 3291 ft | 162 kts | 225° |
| 2026-05-07 02:13 | 36.01096 | -78.61639 | 3111 ft | 161 kts | 226° |
| 2026-05-07 02:13 | 36.00292 | -78.62619 | 3033 ft | 163 kts | 226° |
| 2026-05-07 02:13 | 35.99488 | -78.63610 | 3003 ft | 164 kts | 227° |
| 2026-05-07 02:13 | 35.98687 | -78.64601 | 3001 ft | 163 kts | 226° |
| 2026-05-07 02:14 | 35.97882 | -78.65598 | 3000 ft | 164 kts | 226° |
| 2026-05-07 02:14 | 35.97072 | -78.66602 | 2887 ft | 166 kts | 227° |
| 2026-05-07 02:14 | 35.96264 | -78.67604 | 2671 ft | 164 kts | 226° |
| 2026-05-07 02:14 | 35.95453 | -78.68609 | 2474 ft | 166 kts | 226° |
| 2026-05-07 02:15 | 35.94643 | -78.69613 | 2259 ft | 164 kts | 225° |
| 2026-05-07 02:15 | 35.93834 | -78.70615 | 2048 ft | 165 kts | 225° |
| 2026-05-07 02:15 | 35.93023 | -78.71619 | 1830 ft | 164 kts | 225° |
| 2026-05-07 02:15 | 35.92262 | -78.72562 | 1628 ft | 148 kts | 225° |
| 2026-05-07 02:16 | 35.91586 | -78.73398 | 1437 ft | 130 kts | 224° |
| 2026-05-07 02:16 | 35.90969 | -78.74162 | 1280 ft | 123 kts | 224° |
| 2026-05-07 02:16 | 35.90361 | -78.74914 | 1122 ft | 123 kts | 224° |
| 2026-05-07 02:16 | 35.89758 | -78.75660 | 990 ft | 121 kts | 225° |
| 2026-05-07 02:17 | 35.89160 | -78.76399 | 829 ft | 123 kts | 223° |
| 2026-05-07 02:17 | 35.88551 | -78.77152 | 670 ft | 123 kts | 225° |
| 2026-05-07 02:17 | 35.87922 | -78.77929 | 555 ft | 133 kts | 224° |
| 2026-05-07 02:17 | 35.87309 | -78.78684 | 428 ft | 114 kts | 225° |
| 2026-05-07 02:18 | 35.86828 | -78.79278 | 430 ft | 74 kts | 225° |
| 2026-05-07 02:18 | 35.86570 | -78.79592 | 436 ft | 34 kts | 224° |
| 2026-05-07 02:18 | 35.86499 | -78.79744 | 438 ft | 10 kts | 293° |
| 2026-05-07 02:18 | 35.86512 | -78.79773 | 432 ft | 9 kts | 302° |
| 2026-05-07 02:19 | 35.86543 | -78.79808 | 436 ft | 11 kts | 337° |
| 2026-05-07 02:19 | 35.86602 | -78.79760 | 428 ft | 10 kts | 46° |
| 2026-05-07 02:19 | 35.86606 | -78.79754 | 433 ft | 0 kts | 46° |
| 2026-05-07 02:20 | 35.86617 | -78.79740 | 433 ft | 7 kts | 46° |
| 2026-05-07 02:21 | 35.86655 | -78.79691 | 428 ft | 9 kts | 46° |
| 2026-05-07 02:21 | 35.86701 | -78.79633 | 431 ft | 10 kts | 45° |
| 2026-05-07 02:21 | 35.86754 | -78.79568 | 429 ft | 11 kts | 45° |
| 2026-05-07 02:21 | 35.86812 | -78.79558 | 436 ft | 10 kts | 304° |
| 2026-05-07 02:22 | 35.86866 | -78.79632 | 429 ft | 13 kts | 312° |
| 2026-05-07 02:22 | 35.86913 | -78.79695 | 426 ft | 17 kts | 313° |
| 2026-05-07 02:22 | 35.87012 | -78.79811 | 421 ft | 21 kts | 315° |
| 2026-05-07 02:22 | 35.87077 | -78.79889 | 410 ft | 12 kts | 316° |
| 2026-05-07 02:23 | 35.87157 | -78.79984 | 406 ft | 19 kts | 316° |
| 2026-05-07 02:23 | 35.87256 | -78.80038 | 396 ft | 13 kts | 336° |
| 2026-05-07 02:23 | 35.87310 | -78.80061 | 393 ft | 7 kts | 352° |
| 2026-05-07 02:23 | 35.87327 | -78.80045 | 392 ft | 4 kts | 49° |
| 2026-05-07 02:24 | 35.87348 | -78.80015 | 392 ft | 5 kts | 47° |
| 2026-05-07 02:24 | 35.87374 | -78.79980 | 392 ft | 6 kts | 47° |
| 2026-05-07 02:24 | 35.87404 | -78.79945 | 392 ft | 0 kts | 43° |
| 2026-05-07 02:24 | 35.87405 | -78.79945 | 392 ft | 0 kts | 43° |
| 2026-05-07 02:25 | 35.87406 | -78.79943 | 392 ft | 1 kts | 43° |
| 2026-05-07 02:26 | 35.87443 | -78.79900 | 392 ft | 11 kts | 43° |
| 2026-05-07 02:26 | 35.87504 | -78.79829 | 392 ft | 13 kts | 44° |
| 2026-05-07 02:26 | 35.87571 | -78.79749 | 391 ft | 14 kts | 45° |
| 2026-05-07 02:26 | 35.87642 | -78.79660 | 392 ft | 15 kts | 45° |
| 2026-05-07 02:27 | 35.87689 | -78.79601 | 392 ft | 0 kts | 46° |
| 2026-05-07 02:27 | 35.87696 | -78.79592 | 392 ft | 9 kts | 45° |
| 2026-05-07 02:27 | 35.87738 | -78.79533 | 392 ft | 6 kts | 68° |
| 2026-05-07 02:27 | 35.87715 | -78.79499 | 392 ft | 5 kts | 139° |
| 2026-05-07 02:28 | 35.87703 | -78.79485 | 392 ft | 0 kts | 135° |
| 2026-05-07 02:28 | 35.87699 | -78.79481 | 392 ft | 1 kts | 137° |
| 2026-05-07 02:29 | 35.87698 | -78.79480 | 392 ft | 0 kts | 136° |